Handytankers Glory — C6WH4 — position and weather

sailwx.info

Track history (hours):
 
Tides and Currents Weather Stations Pressure Air Temp Water Temp Dewpoint Dewpoint Depression Visibility Wind Speed Wind Dir Waves Ship Positions

Handytankers Glory

Last reported at 2018-Jun-24 13:25 UTC. Time now 2018-Jun-25 03:49 UTC.
Position N 58°05' E 011°48'.

Length 171 m; draft 11.1 m.

Type: Tanker. MMSI: 309553000.

Date/timePositionNaut miles runAvg speedWind from/ knotsBaromVisibWave heightAir tempDewpointWater temp
2018-Jun-24 13:25N 58°05' E 011°48'3 5.1
2018-Jun-24 12:52N 58°03' E 011°47'4 9.4
2018-Jun-24 12:29N 57°59' E 011°45'510.1
2018-Jun-24 12:00N 57°55' E 011°39'5 9.1
2018-Jun-24 11:30N 57°54' E 011°32'5 9.6
2018-Jun-24 11:00N 57°50' E 011°25'3 4.7
2018-Jun-24 10:22N 57°51' E 011°19'0 0.2
2018-Jun-24 09:49N 57°51' E 011°19'0 0.2
2018-Jun-24 09:30N 57°51' E 011°19'0 0.2
2018-Jun-24 09:00N 57°51' E 011°19'0 0.4
2018-Jun-24 07:56N 57°51' E 011°18'3 7.7
2018-Jun-24 07:30N 57°52' E 011°12'611.8
2018-Jun-24 07:00N 57°52' E 011°01'611.3
2018-Jun-24 06:30N 57°54' E 010°50'612.1
2018-Jun-24 06:00N 57°55' E 010°39'713.0
2018-Jun-24 05:30N 57°55' E 010°27'378 9.0
2018-Jun-22 11:30N 52°48' E 003°59'6 9.6
2018-Jun-22 10:54N 52°43' E 003°58'6 9.4
2018-Jun-22 10:17N 52°38' E 004°04'3 8.7
2018-Jun-22 10:00N 52°36' E 004°06'4 8.5
2018-Jun-22 09:30N 52°32' E 004°10'4 7.8
2018-Jun-22 09:00N 52°31' E 004°16'4 7.2
2018-Jun-22 08:30N 52°30' E 004°22'3 6.9
2018-Jun-22 08:00N 52°29' E 004°27'3 5.6
2018-Jun-22 07:30N 52°28' E 004°31'3 5.8
2018-Jun-22 07:00N 52°28' E 004°36'0 1.0
2018-Jun-22 06:30N 52°28' E 004°37'2 3.0
2018-Jun-22 06:00N 52°28' E 004°39'4 7.1
2018-Jun-22 05:30N 52°26' E 004°44'3 6.1
2018-Jun-22 05:01N 52°25' E 004°49'1 1.2
2018-Jun-22 04:19N 52°24' E 004°49'0 0.0
2018-Jun-22 03:58N 52°24' E 004°49'0 0.0
2018-Jun-22 03:25N 52°24' E 004°49'0 0.0
2018-Jun-22 02:46N 52°24' E 004°49'0 0.0
2018-Jun-22 02:25N 52°24' E 004°49'0 0.0
2018-Jun-22 01:58N 52°24' E 004°49'0 0.0
2018-Jun-22 01:31N 52°24' E 004°49'0 0.0
2018-Jun-22 01:00N 52°24' E 004°49'0 0.0
2018-Jun-22 00:30N 52°24' E 004°49'0 0.0
2018-Jun-22 00:00N 52°24' E 004°49'0 0.0
2018-Jun-21 23:30N 52°24' E 004°49'0 0.0
2018-Jun-21 23:00N 52°24' E 004°49'0 0.0
2018-Jun-21 22:30N 52°24' E 004°49'0 0.0
2018-Jun-21 21:54N 52°24' E 004°49'0 0.0
2018-Jun-21 21:21N 52°24' E 004°49'0 0.0
2018-Jun-21 20:54N 52°24' E 004°49'0 0.0
2018-Jun-21 20:30N 52°24' E 004°49'0 0.0
2018-Jun-21 20:00N 52°24' E 004°49'0 0.0
2018-Jun-21 19:30N 52°24' E 004°49'0 0.0
2018-Jun-21 19:00N 52°24' E 004°49'0 0.0
2018-Jun-21 18:30N 52°24' E 004°49'0 0.0
2018-Jun-21 18:00N 52°24' E 004°49'0 0.0
2018-Jun-21 17:30N 52°24' E 004°49'0 0.0
2018-Jun-21 17:00N 52°24' E 004°49'0 0.0
2018-Jun-21 16:30N 52°24' E 004°49'0 0.0
2018-Jun-21 16:00N 52°24' E 004°49'0 0.0
2018-Jun-21 15:27N 52°24' E 004°49'0 0.0
2018-Jun-21 14:57N 52°24' E 004°49'0 0.0
2018-Jun-21 14:30N 52°24' E 004°49'0 0.0
2018-Jun-21 14:00N 52°24' E 004°49'0 0.0
2018-Jun-21 13:30N 52°24' E 004°49'0 0.1
2018-Jun-21 13:01N 52°24' E 004°49'2 3.4
2018-Jun-21 12:31N 52°25' E 004°47'3 6.3
2018-Jun-21 12:00N 52°26' E 004°42'3 6.5
2018-Jun-21 11:31N 52°28' E 004°38'1 1.3
2018-Jun-21 11:00N 52°28' E 004°37'0 0.2
2018-Jun-21 10:30N 52°28' E 004°36'1 1.7
2018-Jun-21 10:00N 52°28' E 004°35'3 6.1
2018-Jun-21 09:30N 52°28' E 004°30'4 8.8
2018-Jun-21 09:00N 52°28' E 004°23'611.1
2018-Jun-21 08:30N 52°29' E 004°14'4 8.9
2018-Jun-21 08:00N 52°28' E 004°07'0 0.2
2018-Jun-21 06:00N 52°27' E 004°06'0 0.0
2018-Jun-21 04:17N 52°27' E 004°06'0 0.7
2018-Jun-21 04:00N 52°27' E 004°06'4 8.9
2018-Jun-21 03:30N 52°27' E 003°59'510.1
2018-Jun-21 03:00N 52°26' E 003°51'510.6
2018-Jun-21 02:30N 52°25' E 003°42'510.8
2018-Jun-21 02:00N 52°24' E 003°34'611.4
2018-Jun-21 01:30N 52°26' E 003°25'511.0
2018-Jun-21 01:01N 52°27' E 003°16'612.5
2018-Jun-21 00:29N 52°32' E 003°10'  
2018-Jun-17 07:38N 51°47' E 002°36'211.6
2018-Jun-17 07:29N 51°45' E 002°34'611.8
2018-Jun-17 07:00N 51°41' E 002°29'612.6
2018-Jun-17 06:29N 51°36' E 002°23'613.0
2018-Jun-17 06:00N 51°31' E 002°17'713.4
2018-Jun-17 05:30N 51°25' E 002°10'713.0
2018-Jun-17 05:00N 51°19' E 002°07'713.1
2018-Jun-17 04:31N 51°13' E 002°03'713.8
2018-Jun-17 04:00N 51°10' E 001°53'714.3
2018-Jun-17 03:30N 51°05' E 001°44'815.3
2018-Jun-17 03:00N 50°60' E 001°36'815.7
2018-Jun-17 02:30N 50°54' E 001°28'815.1
2018-Jun-17 02:00N 50°46' E 001°24'714.1
2018-Jun-17 01:30N 50°40' E 001°19'713.7
2018-Jun-17 01:00N 50°36' E 001°10'713.6
2018-Jun-17 00:29N 50°31' E 001°02'3014.0
2018-Jun-16 22:22N 50°22' E 000°18'714.6
2018-Jun-16 21:53N 50°21' E 000°07'514.2
2018-Jun-16 21:30N 50°19' W 000°01'713.9
2018-Jun-16 21:00N 50°17' W 000°12'713.7
2018-Jun-16 20:30N 50°16' W 000°22'713.3
2018-Jun-16 20:00N 50°14' W 000°32'912.5
2018-Jun-16 19:18N 50°12' W 000°45'411.8
2018-Jun-16 18:58N 50°10' W 000°52'810.9
2018-Jun-16 18:14N 50°08' W 001°03'210.1
2018-Jun-16 18:00N 50°08' W 001°07'55 9.3
2018-Jun-16 12:09N 49°53' W 002°29'12313.5
2018-Jun-16 03:03N 48°55' W 005°15'510.2
2018-Jun-16 02:36N 48°53' W 005°21'3 8.1
2018-Jun-16 02:15N 48°51' W 005°25'310.9
2018-Jun-16 02:01N 48°50' W 005°28'  
Track history (hours):
 
Tides and Currents Weather Stations Pressure Air Temp Water Temp Dewpoint Dewpoint Depression Visibility Wind Speed Wind Dir Waves Ship Positions

Handytankers Glory

Last reported at 2018-Jun-24 13:25 UTC. Time now 2018-Jun-25 03:49 UTC.
Position N 58°05' E 011°48'.

Length 171 m; draft 11.1 m.

Type: Tanker. MMSI: 309553000.

Date/timePositionNaut miles runAvg speedWind from/ knotsBaromVisibWave heightAir tempDewpointWater temp
2018-Jun-24 13:25N 58°05' E 011°48'3 5.1
2018-Jun-24 12:52N 58°03' E 011°47'4 9.4
2018-Jun-24 12:29N 57°59' E 011°45'510.1
2018-Jun-24 12:00N 57°55' E 011°39'5 9.1
2018-Jun-24 11:30N 57°54' E 011°32'5 9.6
2018-Jun-24 11:00N 57°50' E 011°25'3 4.7
2018-Jun-24 10:22N 57°51' E 011°19'0 0.2
2018-Jun-24 09:49N 57°51' E 011°19'0 0.2
2018-Jun-24 09:30N 57°51' E 011°19'0 0.2
2018-Jun-24 09:00N 57°51' E 011°19'0 0.4
2018-Jun-24 07:56N 57°51' E 011°18'3 7.7
2018-Jun-24 07:30N 57°52' E 011°12'611.8
2018-Jun-24 07:00N 57°52' E 011°01'611.3
2018-Jun-24 06:30N 57°54' E 010°50'612.1
2018-Jun-24 06:00N 57°55' E 010°39'713.0
2018-Jun-24 05:30N 57°55' E 010°27'378 9.0
2018-Jun-22 11:30N 52°48' E 003°59'6 9.6
2018-Jun-22 10:54N 52°43' E 003°58'6 9.4
2018-Jun-22 10:17N 52°38' E 004°04'3 8.7
2018-Jun-22 10:00N 52°36' E 004°06'4 8.5
2018-Jun-22 09:30N 52°32' E 004°10'4 7.8
2018-Jun-22 09:00N 52°31' E 004°16'4 7.2
2018-Jun-22 08:30N 52°30' E 004°22'3 6.9
2018-Jun-22 08:00N 52°29' E 004°27'3 5.6
2018-Jun-22 07:30N 52°28' E 004°31'3 5.8
2018-Jun-22 07:00N 52°28' E 004°36'0 1.0
2018-Jun-22 06:30N 52°28' E 004°37'2 3.0
2018-Jun-22 06:00N 52°28' E 004°39'4 7.1
2018-Jun-22 05:30N 52°26' E 004°44'3 6.1
2018-Jun-22 05:01N 52°25' E 004°49'1 1.2
2018-Jun-22 04:19N 52°24' E 004°49'0 0.0
2018-Jun-22 03:58N 52°24' E 004°49'0 0.0
2018-Jun-22 03:25N 52°24' E 004°49'0 0.0
2018-Jun-22 02:46N 52°24' E 004°49'0 0.0
2018-Jun-22 02:25N 52°24' E 004°49'0 0.0
2018-Jun-22 01:58N 52°24' E 004°49'0 0.0
2018-Jun-22 01:31N 52°24' E 004°49'0 0.0
2018-Jun-22 01:00N 52°24' E 004°49'0 0.0
2018-Jun-22 00:30N 52°24' E 004°49'0 0.0
2018-Jun-22 00:00N 52°24' E 004°49'0 0.0
2018-Jun-21 23:30N 52°24' E 004°49'0 0.0
2018-Jun-21 23:00N 52°24' E 004°49'0 0.0
2018-Jun-21 22:30N 52°24' E 004°49'0 0.0
2018-Jun-21 21:54N 52°24' E 004°49'0 0.0
2018-Jun-21 21:21N 52°24' E 004°49'0 0.0
2018-Jun-21 20:54N 52°24' E 004°49'0 0.0
2018-Jun-21 20:30N 52°24' E 004°49'0 0.0
2018-Jun-21 20:00N 52°24' E 004°49'0 0.0
2018-Jun-21 19:30N 52°24' E 004°49'0 0.0
2018-Jun-21 19:00N 52°24' E 004°49'0 0.0
2018-Jun-21 18:30N 52°24' E 004°49'0 0.0
2018-Jun-21 18:00N 52°24' E 004°49'0 0.0
2018-Jun-21 17:30N 52°24' E 004°49'0 0.0
2018-Jun-21 17:00N 52°24' E 004°49'0 0.0
2018-Jun-21 16:30N 52°24' E 004°49'0 0.0
2018-Jun-21 16:00N 52°24' E 004°49'0 0.0
2018-Jun-21 15:27N 52°24' E 004°49'0 0.0
2018-Jun-21 14:57N 52°24' E 004°49'0 0.0
2018-Jun-21 14:30N 52°24' E 004°49'0 0.0
2018-Jun-21 14:00N 52°24' E 004°49'0 0.0
2018-Jun-21 13:30N 52°24' E 004°49'0 0.1
2018-Jun-21 13:01N 52°24' E 004°49'2 3.4
2018-Jun-21 12:31N 52°25' E 004°47'3 6.3
2018-Jun-21 12:00N 52°26' E 004°42'3 6.5
2018-Jun-21 11:31N 52°28' E 004°38'1 1.3
2018-Jun-21 11:00N 52°28' E 004°37'0 0.2
2018-Jun-21 10:30N 52°28' E 004°36'1 1.7
2018-Jun-21 10:00N 52°28' E 004°35'3 6.1
2018-Jun-21 09:30N 52°28' E 004°30'4 8.8
2018-Jun-21 09:00N 52°28' E 004°23'611.1
2018-Jun-21 08:30N 52°29' E 004°14'4 8.9
2018-Jun-21 08:00N 52°28' E 004°07'0 0.2
2018-Jun-21 06:00N 52°27' E 004°06'0 0.0
2018-Jun-21 04:17N 52°27' E 004°06'0 0.7
2018-Jun-21 04:00N 52°27' E 004°06'4 8.9
2018-Jun-21 03:30N 52°27' E 003°59'510.1
2018-Jun-21 03:00N 52°26' E 003°51'510.6
2018-Jun-21 02:30N 52°25' E 003°42'510.8
2018-Jun-21 02:00N 52°24' E 003°34'611.4
2018-Jun-21 01:30N 52°26' E 003°25'511.0
2018-Jun-21 01:01N 52°27' E 003°16'612.5
2018-Jun-21 00:29N 52°32' E 003°10'  
2018-Jun-17 07:38N 51°47' E 002°36'211.6
2018-Jun-17 07:29N 51°45' E 002°34'611.8
2018-Jun-17 07:00N 51°41' E 002°29'612.6
2018-Jun-17 06:29N 51°36' E 002°23'613.0
2018-Jun-17 06:00N 51°31' E 002°17'713.4
2018-Jun-17 05:30N 51°25' E 002°10'713.0
2018-Jun-17 05:00N 51°19' E 002°07'713.1
2018-Jun-17 04:31N 51°13' E 002°03'713.8
2018-Jun-17 04:00N 51°10' E 001°53'714.3
2018-Jun-17 03:30N 51°05' E 001°44'815.3
2018-Jun-17 03:00N 50°60' E 001°36'815.7
2018-Jun-17 02:30N 50°54' E 001°28'815.1
2018-Jun-17 02:00N 50°46' E 001°24'714.1
2018-Jun-17 01:30N 50°40' E 001°19'713.7
2018-Jun-17 01:00N 50°36' E 001°10'713.6
2018-Jun-17 00:29N 50°31' E 001°02'3014.0
2018-Jun-16 22:22N 50°22' E 000°18'714.6
2018-Jun-16 21:53N 50°21' E 000°07'514.2
2018-Jun-16 21:30N 50°19' W 000°01'713.9
2018-Jun-16 21:00N 50°17' W 000°12'713.7
2018-Jun-16 20:30N 50°16' W 000°22'713.3
2018-Jun-16 20:00N 50°14' W 000°32'912.5
2018-Jun-16 19:18N 50°12' W 000°45'411.8
2018-Jun-16 18:58N 50°10' W 000°52'810.9
2018-Jun-16 18:14N 50°08' W 001°03'210.1
2018-Jun-16 18:00N 50°08' W 001°07'55 9.3
2018-Jun-16 12:09N 49°53' W 002°29'12313.5
2018-Jun-16 03:03N 48°55' W 005°15'510.2
2018-Jun-16 02:36N 48°53' W 005°21'3 8.1
2018-Jun-16 02:15N 48°51' W 005°25'310.9
2018-Jun-16 02:01N 48°50' W 005°28'  

Dump ship's entire track history